PST,Max TemperatureF,Mean TemperatureF,Min TemperatureF,Max Dew PointF,MeanDew PointF,Min DewpointF,Max Humidity, Mean Humidity, Min Humidity, Max Sea Level PressureIn, Mean Sea Level PressureIn, Min Sea Level PressureIn, Max VisibilityMiles, Mean VisibilityMiles, Min VisibilityMiles, Max Wind SpeedMPH, Mean Wind SpeedMPH, Max Gust SpeedMPH,PrecipitationIn, CloudCover, Events, WindDirDegrees
2011-11-1,91,73,57,24,16,-3,22,14,5,30.08,29.84,29.73,10,10,10,33,8,41,0.00,0,,345
2011-11-2,71,64,57,20,13,8,22,15,10,30.26,30.16,30.11,10,10,9,40,22,53,0.00,0,,7
2011-11-3,73,61,50,18,13,10,24,16,10,30.11,29.96,29.74,10,10,10,9,5,,0.00,0,,295
2011-11-4,73,62,51,51,34,11,89,42,12,29.71,29.63,29.51,10,10,9,26,10,32,0.03,4,Rain,244
2011-11-5,64,56,48,46,35,26,86,50,25,29.93,29.86,29.65,10,10,10,13,7,,0.18,0,,238
2011-11-6,64,54,45,47,40,34,86,64,33,29.98,29.93,29.88,10,10,10,14,4,18,0.03,3,Rain,284
2011-11-7,63,54,46,45,37,27,90,57,26,30.14,30.03,29.94,10,10,10,9,5,,0.01,0,,294
2011-11-8,66,56,45,35,27,21,66,37,18,30.27,30.21,30.14,10,10,10,15,5,,0.01,0,,1
2011-11-9,69,60,51,29,25,22,43,28,18,30.35,30.28,30.23,10,10,10,24,14,31,0.00,0,,7
2011-11-10,69,60,51,30,27,25,43,29,20,30.30,30.18,30.02,10,10,10,13,7,,0.00,0,,337
2011-11-11,66,60,53,35,30,27,45,34,25,30.01,29.92,29.83,10,10,10,8,3,,0.00,0,,283
2011-11-12,66,57,48,39,34,31,54,43,29,29.87,29.84,29.80,10,10,10,8,3,,0.00,3,,273
2011-11-13,71,62,54,49,44,37,67,51,40,29.89,29.85,29.81,10,10,10,12,4,,0.00,3,,215
2011-11-14,73,62,50,50,47,45,86,60,37,29.92,29.87,29.81,10,10,10,8,4,,0.00,0,,250
2011-11-15,75,64,53,47,45,43,77,54,34,30.00,29.94,29.88,10,10,10,9,4,,0.00,0,,272
2011-11-16,73,63,53,45,37,28,74,41,21,30.14,30.08,29.98,10,10,10,12,6,,0.00,0,,336
2011-11-17,73,62,50,32,29,27,43,30,18,30.10,29.99,29.85,10,10,10,8,5,,0.00,0,,316
2011-11-18,75,64,53,37,33,29,48,32,18,29.85,29.74,29.64,10,10,10,21,8,29,0.00,0,,215
2011-11-19,70,62,55,40,37,34,53,40,28,29.80,29.75,29.67,10,10,10,20,9,25,0.00,0,,210
2011-11-20,68,62,55,44,39,36,53,44,37,29.93,29.87,29.80,10,10,10,14,8,,0.00,3,,226
2011-11-21,69,62,54,43,39,36,59,47,35,30.20,30.04,29.90,10,10,10,9,6,,0.00,2,,234
2011-11-22,71,58,46,39,37,35,66,51,28,30.29,30.20,30.13,10,10,10,8,4,,0.00,0,,269
2011-11-23,72,60,48,38,37,36,63,46,27,30.12,30.00,29.87,10,10,10,9,4,,0.00,0,,303
2011-11-24,72,60,48,40,37,35,63,46,29,29.96,29.91,29.86,10,10,10,10,5,,0.00,0,,263
2011-11-25,75,62,50,37,32,27,61,37,19,30.19,30.07,29.96,10,10,10,9,4,,0.00,0,,248
2011-11-26,73,62,52,29,19,12,38,20,11,30.35,30.30,30.20,10,10,10,31,11,41,0.00,0,,359
2011-11-27,73,64,52,16,14,13,23,16,10,30.41,30.32,30.24,10,10,10,9,6,,0.00,0,,332
2011-11-28,73,60,48,19,17,15,28,20,11,30.24,30.16,30.07,10,10,10,10,5,,0.00,0,,304
2011-11-29,79,66,54,23,20,16,27,18,9,30.14,30.06,30.01,10,10,10,20,8,,0.00,0,,317
2011-11-30,78,63,48,32,21,13,40,22,10,30.00,29.77,29.57,10,10,10,34,7,46,0.00,0,,285